createdAt,value
2023-01-20T00:01:37.166Z,6.72
2023-01-20T00:04:04.580Z,6.72
2023-01-20T00:06:31.649Z,6.53
2023-01-20T00:09:00.620Z,6.22
2023-01-20T00:11:28.376Z,6.72
2023-01-20T00:13:57.009Z,6.90
2023-01-20T00:16:24.492Z,7.32
2023-01-20T00:18:51.424Z,7.55
2023-01-20T00:21:18.461Z,7.70
2023-01-20T00:23:46.739Z,7.85
2023-01-20T00:26:19.550Z,7.72
2023-01-20T00:31:18.920Z,7.63
2023-01-20T00:33:47.439Z,8.10
2023-01-20T00:36:16.414Z,7.88
2023-01-20T00:38:43.493Z,8.00
2023-01-20T00:41:10.963Z,9.00
2023-01-20T00:43:38.397Z,10.40
2023-01-20T00:46:05.902Z,10.45
2023-01-20T00:48:33.354Z,11.43
2023-01-20T00:51:00.504Z,12.02
2023-01-20T00:53:27.592Z,10.98
2023-01-20T00:55:54.433Z,10.70
2023-01-20T00:58:21.340Z,9.18
2023-01-20T01:00:49.883Z,8.40
2023-01-20T01:03:17.122Z,8.98
2023-01-20T01:05:44.995Z,8.40
2023-01-20T01:08:12.505Z,8.85
2023-01-20T01:10:40.398Z,9.35
2023-01-20T01:13:08.098Z,8.43
2023-01-20T01:15:34.978Z,9.13
2023-01-20T01:18:02.762Z,9.43
2023-01-20T01:20:30.039Z,9.10
2023-01-20T01:22:57.221Z,8.57
2023-01-20T01:25:24.156Z,7.70
2023-01-20T01:27:51.095Z,8.60
2023-01-20T01:30:18.126Z,8.30
2023-01-20T01:32:45.016Z,8.02
2023-01-20T01:35:12.297Z,8.60
2023-01-20T01:37:39.540Z,9.15
2023-01-20T01:40:07.253Z,8.15
2023-01-20T01:42:34.187Z,8.55
2023-01-20T01:45:10.020Z,8.77
2023-01-20T01:48:07.597Z,8.65
2023-01-20T01:50:45.776Z,9.02
2023-01-20T01:53:15.010Z,9.50
2023-01-20T01:55:50.889Z,9.10
2023-01-20T01:58:24.108Z,8.82
2023-01-20T02:00:51.318Z,8.75
2023-01-20T02:03:18.553Z,9.55
2023-01-20T02:05:46.356Z,8.77
2023-01-20T02:08:13.250Z,8.27
2023-01-20T02:10:40.242Z,9.20
2023-01-20T02:13:07.250Z,8.48
2023-01-20T02:15:59.889Z,9.20
2023-01-20T02:18:50.026Z,8.77
2023-01-20T02:21:27.649Z,8.50
2023-01-20T02:24:41.897Z,9.02
2023-01-20T02:27:23.786Z,9.20
2023-01-20T02:29:56.537Z,8.43
2023-01-20T02:35:12.092Z,8.50
2023-01-20T02:37:45.311Z,9.65
2023-01-20T02:40:30.475Z,8.35
2023-01-20T02:43:06.415Z,9.85
2023-01-20T02:45:48.594Z,9.20
2023-01-20T02:48:27.510Z,8.98
2023-01-20T02:51:10.390Z,8.38
2023-01-20T02:54:17.741Z,9.38
2023-01-20T02:56:44.971Z,9.05
2023-01-20T02:59:13.823Z,8.90
2023-01-20T03:01:47.572Z,8.05
2023-01-20T03:04:19.866Z,9.38
2023-01-20T03:06:58.561Z,6.80
2023-01-20T03:09:30.472Z,8.63
2023-01-20T03:12:03.983Z,8.95
2023-01-20T03:14:30.994Z,8.13
2023-01-20T03:16:57.780Z,8.27
2023-01-20T03:19:24.916Z,8.88
2023-01-20T03:21:52.666Z,8.82
2023-01-20T03:24:20.573Z,8.65
2023-01-20T03:26:47.372Z,8.90
2023-01-20T03:29:16.063Z,8.40
2023-01-20T03:31:47.830Z,8.65
2023-01-20T03:34:19.841Z,9.05
2023-01-20T03:36:47.498Z,8.68
2023-01-20T03:39:14.885Z,8.85
2023-01-20T03:42:32.387Z,8.30
2023-01-20T03:45:17.169Z,7.68
2023-01-20T03:48:01.681Z,8.75
2023-01-20T03:50:58.905Z,8.65
2023-01-20T03:53:30.672Z,9.23
2023-01-20T03:56:21.583Z,8.73
2023-01-20T03:58:52.605Z,8.35
2023-01-20T04:01:24.632Z,9.13
2023-01-20T04:03:53.919Z,7.80
2023-01-20T04:06:24.233Z,7.97
2023-01-20T04:08:59.657Z,7.95
2023-01-20T04:11:27.989Z,7.38
2023-01-20T04:13:55.161Z,7.57
2023-01-20T04:16:22.982Z,7.55
2023-01-20T04:18:51.737Z,7.57
2023-01-20T04:21:38.751Z,7.45
2023-01-20T04:24:26.270Z,7.40
2023-01-20T04:26:53.195Z,8.25
2023-01-20T04:29:20.081Z,7.90
2023-01-20T04:31:46.915Z,7.10
2023-01-20T04:34:17.879Z,7.80
2023-01-20T04:36:44.665Z,7.03
2023-01-20T04:39:11.487Z,6.90
2023-01-20T04:41:38.371Z,6.80
2023-01-20T04:44:05.198Z,6.38
2023-01-20T04:46:32.098Z,6.88
2023-01-20T04:48:58.958Z,8.40
2023-01-20T04:51:25.824Z,7.25
2023-01-20T04:53:57.429Z,7.13
2023-01-20T04:56:24.547Z,6.75
2023-01-20T04:58:51.531Z,7.45
2023-01-20T05:01:18.501Z,7.47
2023-01-20T05:03:45.319Z,7.78
2023-01-20T05:06:12.237Z,7.45
2023-01-20T05:08:39.421Z,7.13
2023-01-20T05:11:06.573Z,7.10
2023-01-20T05:13:38.442Z,7.22
2023-01-20T05:16:08.182Z,5.77
2023-01-20T05:18:35.159Z,7.60
2023-01-20T05:21:03.979Z,6.57
2023-01-20T05:23:30.869Z,6.57
2023-01-20T05:25:57.653Z,8.05
2023-01-20T05:28:24.609Z,7.53
2023-01-20T05:30:51.974Z,7.50
2023-01-20T05:33:18.812Z,7.55
2023-01-20T05:35:45.620Z,7.15
2023-01-20T05:38:12.461Z,6.60
2023-01-20T05:40:39.257Z,6.78
2023-01-20T05:43:06.049Z,7.22
2023-01-20T05:45:33.088Z,7.55
2023-01-20T05:48:00.360Z,6.85
2023-01-20T05:50:28.784Z,7.78
2023-01-20T05:52:55.644Z,6.75
2023-01-20T05:55:22.522Z,7.43
2023-01-20T05:57:49.251Z,6.90
2023-01-20T06:00:18.813Z,7.00
2023-01-20T06:02:46.022Z,6.80
2023-01-20T06:05:13.283Z,6.97
2023-01-20T06:07:40.368Z,6.25
2023-01-20T06:10:08.795Z,7.35
2023-01-20T06:12:35.793Z,6.88
2023-01-20T06:15:02.762Z,6.78
2023-01-20T06:17:29.555Z,6.63
2023-01-20T06:19:56.404Z,6.10
2023-01-20T06:22:23.439Z,5.68
2023-01-20T06:24:50.267Z,6.38
2023-01-20T06:27:17.045Z,6.57
2023-01-20T06:29:44.072Z,7.57
2023-01-20T06:32:10.957Z,7.07
2023-01-20T06:34:37.939Z,6.55
2023-01-20T06:37:04.765Z,7.05
2023-01-20T06:39:31.576Z,6.03
2023-01-20T06:41:59.469Z,6.65
2023-01-20T06:44:26.957Z,5.78
2023-01-20T06:46:54.314Z,6.00
2023-01-20T06:49:21.257Z,6.75
2023-01-20T06:51:48.869Z,6.88
2023-01-20T06:54:16.099Z,6.53
2023-01-20T06:56:42.934Z,6.45
2023-01-20T06:59:10.981Z,6.88
2023-01-20T07:01:38.059Z,7.47
2023-01-20T07:04:06.505Z,6.55
2023-01-20T07:06:35.972Z,7.10
2023-01-20T07:09:02.879Z,7.25
2023-01-20T07:11:31.474Z,6.53
2023-01-20T07:13:58.568Z,6.72
2023-01-20T07:16:25.416Z,7.50
2023-01-20T07:18:53.648Z,6.97
2023-01-20T07:21:21.419Z,7.20
2023-01-20T07:23:49.171Z,7.28
2023-01-20T07:26:20.304Z,7.63
2023-01-20T07:28:48.011Z,7.07
2023-01-20T07:31:21.221Z,7.85
2023-01-20T07:33:48.451Z,7.18
2023-01-20T07:36:16.377Z,6.25
2023-01-20T07:38:43.311Z,7.15
2023-01-20T07:41:15.970Z,7.22
2023-01-20T07:46:10.589Z,6.88
2023-01-20T07:48:37.770Z,7.55
2023-01-20T07:51:07.037Z,7.43
2023-01-20T07:53:39.443Z,7.10
2023-01-20T07:56:12.225Z,8.00
2023-01-20T08:01:15.392Z,7.60
2023-01-20T08:03:43.512Z,6.55
2023-01-20T08:06:12.516Z,7.40
2023-01-20T08:08:39.404Z,7.45
2023-01-20T08:11:07.609Z,8.27
2023-01-20T08:13:35.985Z,8.43
2023-01-20T08:16:05.887Z,8.82
2023-01-20T08:18:34.003Z,8.23
2023-01-20T08:21:01.906Z,8.43
2023-01-20T08:23:28.765Z,9.82
2023-01-20T08:26:04.561Z,8.07
2023-01-20T08:28:34.077Z,9.05
2023-01-20T08:31:08.447Z,9.18
2023-01-20T08:33:35.568Z,10.73
2023-01-20T08:36:11.821Z,12.00
2023-01-20T08:38:39.426Z,11.57
2023-01-20T08:41:08.276Z,8.48
2023-01-20T08:43:35.191Z,8.35
2023-01-20T08:46:04.802Z,6.93
2023-01-20T08:48:31.652Z,7.40
2023-01-20T08:50:58.732Z,7.18
2023-01-20T08:53:26.135Z,7.20
2023-01-20T08:55:58.225Z,7.20
2023-01-20T08:58:26.225Z,7.10
2023-01-20T09:00:53.535Z,6.97
2023-01-20T09:03:21.207Z,6.90
2023-01-20T09:05:48.299Z,7.03
2023-01-20T09:08:15.985Z,7.00
2023-01-20T09:10:43.469Z,6.45
2023-01-20T09:13:10.224Z,7.28
2023-01-20T09:15:39.334Z,7.43
2023-01-20T09:18:06.269Z,7.28
2023-01-20T09:20:33.245Z,7.13
2023-01-20T09:23:03.228Z,6.97
2023-01-20T09:25:30.392Z,6.13
2023-01-20T09:28:01.296Z,6.95
2023-01-20T09:30:28.500Z,6.30
2023-01-20T09:32:58.004Z,6.35
2023-01-20T09:35:32.638Z,6.50
2023-01-20T09:38:17.948Z,5.97
2023-01-20T09:41:32.540Z,6.20
2023-01-20T09:44:08.652Z,6.75
2023-01-20T09:47:12.830Z,6.40
2023-01-20T09:50:35.082Z,6.88
2023-01-20T09:53:23.590Z,6.28
2023-01-20T09:55:56.900Z,6.85
2023-01-20T09:58:29.464Z,6.82
2023-01-20T10:01:14.611Z,6.38
2023-01-20T10:03:56.990Z,6.18
2023-01-20T10:06:37.587Z,5.13
2023-01-20T10:09:14.707Z,5.65
2023-01-20T10:11:46.155Z,5.05
2023-01-20T10:14:35.436Z,5.50
2023-01-20T10:17:13.752Z,5.85
2023-01-20T10:19:52.881Z,5.72
2023-01-20T10:22:29.470Z,5.63
2023-01-20T10:25:20.613Z,5.65
2023-01-20T10:27:58.146Z,5.32
2023-01-20T10:30:31.445Z,6.25
2023-01-20T10:33:09.888Z,5.10
2023-01-20T10:35:44.479Z,6.13
2023-01-20T10:38:24.621Z,5.45
2023-01-20T10:40:57.233Z,5.03
2023-01-20T10:43:24.109Z,5.78
2023-01-20T10:45:59.872Z,6.03
2023-01-20T10:48:59.729Z,6.40
2023-01-20T10:51:54.286Z,5.28
2023-01-20T10:54:49.131Z,5.93
2023-01-20T10:57:16.466Z,5.40
2023-01-20T10:59:50.532Z,5.68
2023-01-20T11:02:32.133Z,5.40
2023-01-20T11:05:24.723Z,5.68
2023-01-20T11:07:53.704Z,4.15
2023-01-20T11:10:24.874Z,5.45
2023-01-20T11:12:54.986Z,5.03
2023-01-20T11:15:31.458Z,5.55
2023-01-20T11:18:16.649Z,5.20
2023-01-20T11:20:53.789Z,6.25
2023-01-20T11:23:27.112Z,6.03
2023-01-20T11:25:57.386Z,5.97
2023-01-20T11:28:25.473Z,5.47
2023-01-20T11:30:55.490Z,5.32
2023-01-20T11:33:23.863Z,5.63
2023-01-20T11:36:16.487Z,5.70
2023-01-20T11:38:48.994Z,4.93
2023-01-20T11:41:28.769Z,4.95
2023-01-20T11:44:00.804Z,5.22
2023-01-20T11:46:32.945Z,5.13
2023-01-20T11:49:16.845Z,5.32
2023-01-20T11:51:50.303Z,6.35
2023-01-20T11:54:28.754Z,5.97
2023-01-20T11:57:07.678Z,5.18
2023-01-20T11:59:36.433Z,6.10
2023-01-20T12:02:09.327Z,6.90
2023-01-20T12:05:00.782Z,5.82
2023-01-20T12:07:34.431Z,5.80
2023-01-20T12:10:29.388Z,4.97
2023-01-20T12:13:12.864Z,5.13
2023-01-20T12:15:44.258Z,5.03
2023-01-20T12:18:19.661Z,4.78
2023-01-20T12:20:55.803Z,5.18
2023-01-20T12:23:56.366Z,4.70
2023-01-20T12:26:24.250Z,5.18
2023-01-20T12:29:07.593Z,6.03
2023-01-20T12:31:34.499Z,4.72
2023-01-20T12:34:14.749Z,4.13
2023-01-20T12:36:59.338Z,2.85
2023-01-20T12:39:39.865Z,2.60
2023-01-20T12:42:30.645Z,2.58
2023-01-20T12:45:02.051Z,2.85
2023-01-20T12:47:50.989Z,2.80
2023-01-20T12:50:44.109Z,2.65
2023-01-20T12:53:10.892Z,2.45
2023-01-20T12:55:46.582Z,2.17
2023-01-20T12:58:35.790Z,2.90
2023-01-20T13:01:21.318Z,2.28
2023-01-20T13:04:25.461Z,2.47
2023-01-20T13:07:14.231Z,2.38
2023-01-20T13:09:52.304Z,1.83
2023-01-20T13:12:48.960Z,2.50
2023-01-20T13:15:34.045Z,1.98
2023-01-20T13:18:17.550Z,2.45
2023-01-20T13:20:45.962Z,2.80
2023-01-20T13:23:28.408Z,2.50
2023-01-20T13:25:57.062Z,2.42
2023-01-20T13:28:26.785Z,2.25
2023-01-20T13:30:55.846Z,2.33
2023-01-20T13:33:38.904Z,2.63
2023-01-20T13:36:24.659Z,2.72
2023-01-20T13:39:29.642Z,1.92
2023-01-20T13:41:56.769Z,1.92
2023-01-20T13:44:40.883Z,2.08
2023-01-20T13:47:10.950Z,2.05
2023-01-20T13:49:53.420Z,2.20
2023-01-20T13:52:51.117Z,1.67
2023-01-20T13:55:45.972Z,2.38
2023-01-20T13:58:15.447Z,2.28
2023-01-20T14:00:42.726Z,2.22
2023-01-20T14:03:29.738Z,2.10
2023-01-20T14:06:06.984Z,2.08
2023-01-20T14:08:48.525Z,2.05
2023-01-20T14:11:21.857Z,1.85
2023-01-20T14:14:03.011Z,1.67
2023-01-20T14:16:36.025Z,1.70
2023-01-20T14:19:20.201Z,1.83
2023-01-20T14:21:53.199Z,2.13
2023-01-20T14:24:34.430Z,1.85
2023-01-20T14:27:17.808Z,2.20
2023-01-20T14:29:51.829Z,2.08
2023-01-20T14:32:23.182Z,1.67
2023-01-20T14:34:51.090Z,2.30
2023-01-20T14:37:39.054Z,2.40
2023-01-20T14:40:32.621Z,1.95
2023-01-20T14:43:06.256Z,2.40
2023-01-20T14:45:37.065Z,2.00
2023-01-20T14:48:06.133Z,1.77
2023-01-20T14:50:40.802Z,1.88
2023-01-20T14:53:16.413Z,2.92
2023-01-20T14:56:01.144Z,2.72
2023-01-20T14:58:30.601Z,2.70
2023-01-20T15:01:02.869Z,3.15
2023-01-20T15:03:30.898Z,3.33
2023-01-20T15:06:11.104Z,3.55
2023-01-20T15:08:39.158Z,3.70
2023-01-20T15:11:13.940Z,3.65
2023-01-20T15:13:46.376Z,4.10
2023-01-20T15:16:20.443Z,3.78
2023-01-20T15:19:20.046Z,3.60
2023-01-20T15:21:56.290Z,4.18
2023-01-20T15:24:30.393Z,3.88
2023-01-20T15:27:00.194Z,3.92
2023-01-20T15:29:35.557Z,3.80
2023-01-20T15:32:09.877Z,3.88
2023-01-20T15:34:36.778Z,3.60
2023-01-20T15:37:11.886Z,3.90
2023-01-20T15:39:38.645Z,3.58
2023-01-20T15:42:08.876Z,4.13
2023-01-20T15:44:35.847Z,3.58
2023-01-20T15:47:02.807Z,3.70
2023-01-20T15:49:29.615Z,4.10
2023-01-20T15:51:57.904Z,3.75
2023-01-20T15:54:24.733Z,4.05
2023-01-20T15:56:51.594Z,3.92
2023-01-20T15:59:22.450Z,3.60
2023-01-20T16:01:50.389Z,3.67
2023-01-20T16:04:18.786Z,3.53
2023-01-20T16:06:46.052Z,4.03
2023-01-20T16:09:37.090Z,4.13
2023-01-20T16:12:04.517Z,4.30
2023-01-20T16:14:31.412Z,4.30
2023-01-20T16:16:58.303Z,4.18
2023-01-20T16:19:25.125Z,4.95
2023-01-20T16:21:52.059Z,4.00
2023-01-20T16:24:19.077Z,4.28
2023-01-20T16:26:47.078Z,4.28
2023-01-20T16:29:13.945Z,3.85
2023-01-20T16:31:40.913Z,4.22
2023-01-20T16:34:08.370Z,4.25
2023-01-20T16:36:35.265Z,3.97
2023-01-20T16:39:02.319Z,4.30
2023-01-20T16:41:30.884Z,5.78
2023-01-20T16:43:58.625Z,5.68
2023-01-20T16:46:30.986Z,5.28
2023-01-20T16:49:02.138Z,5.72
2023-01-20T16:51:30.635Z,5.22
2023-01-20T16:53:58.754Z,4.70
2023-01-20T16:56:27.969Z,5.43
2023-01-20T16:58:57.855Z,5.75
2023-01-20T17:01:26.740Z,6.07
2023-01-20T17:03:55.762Z,5.78
2023-01-20T17:06:27.966Z,6.60
2023-01-20T17:08:58.371Z,5.70
2023-01-20T17:11:36.590Z,5.65
2023-01-20T17:14:05.455Z,6.85
2023-01-20T17:16:32.787Z,5.55
2023-01-20T17:19:01.328Z,6.25
2023-01-20T17:21:31.130Z,6.13
2023-01-20T17:24:01.573Z,5.88
2023-01-20T17:26:28.712Z,5.97
2023-01-20T17:28:57.870Z,5.80
2023-01-20T17:31:25.377Z,6.22
2023-01-20T17:33:52.373Z,6.47
2023-01-20T17:36:19.370Z,6.50
2023-01-20T17:38:46.940Z,5.57
2023-01-20T17:41:14.555Z,5.00
2023-01-20T17:43:44.284Z,5.45
2023-01-20T17:46:24.324Z,4.93
2023-01-20T17:48:51.561Z,5.65
2023-01-20T17:51:23.802Z,10.23
2023-01-20T17:53:51.571Z,9.45
2023-01-20T17:56:20.149Z,11.27
2023-01-20T17:58:47.866Z,11.60
2023-01-20T18:01:22.547Z,12.70
2023-01-20T18:03:53.674Z,14.93
2023-01-20T18:06:22.524Z,13.68
2023-01-20T18:08:57.635Z,10.65
2023-01-20T18:11:26.990Z,9.40
2023-01-20T18:13:55.699Z,11.68
2023-01-20T18:16:28.206Z,9.85
2023-01-20T18:18:58.768Z,9.50
2023-01-20T18:21:28.937Z,9.15
2023-01-20T18:23:56.846Z,9.85
2023-01-20T18:26:25.985Z,8.88
2023-01-20T18:28:57.665Z,10.10
2023-01-20T18:31:26.337Z,10.80
2023-01-20T18:33:55.618Z,10.15
2023-01-20T18:36:25.108Z,9.73
2023-01-20T18:38:53.737Z,8.30
2023-01-20T18:41:21.624Z,6.80
2023-01-20T18:43:48.755Z,7.25
2023-01-20T18:46:16.280Z,5.93
2023-01-20T18:48:48.323Z,6.25
2023-01-20T18:51:17.791Z,6.53
2023-01-20T18:53:46.026Z,5.57
2023-01-20T18:56:16.039Z,5.45
2023-01-20T18:58:47.063Z,5.22
2023-01-20T19:01:35.673Z,7.18
2023-01-20T19:04:04.260Z,7.80
2023-01-20T19:06:34.835Z,10.77
2023-01-20T19:09:02.011Z,9.35
2023-01-20T19:11:34.433Z,6.70
2023-01-20T19:14:01.990Z,5.97
2023-01-20T19:16:36.096Z,5.07
2023-01-20T19:19:05.017Z,5.45
2023-01-20T19:21:33.250Z,5.80
2023-01-20T19:24:05.914Z,5.43
2023-01-20T19:26:35.705Z,5.50
2023-01-20T19:29:06.356Z,6.05
2023-01-20T19:31:36.068Z,6.47
2023-01-20T19:34:03.399Z,14.30
2023-01-20T19:36:33.261Z,18.33
2023-01-20T19:39:01.064Z,11.23
2023-01-20T19:41:31.990Z,8.13
2023-01-20T19:44:00.882Z,7.03
2023-01-20T19:46:39.471Z,5.85
2023-01-20T19:49:06.970Z,5.38
2023-01-20T19:51:33.922Z,6.63
2023-01-20T19:54:01.611Z,7.22
2023-01-20T19:56:30.522Z,6.97
2023-01-20T19:59:00.714Z,6.18
2023-01-20T20:01:33.080Z,5.38
2023-01-20T20:04:05.448Z,5.88
2023-01-20T20:06:34.611Z,6.70
2023-01-20T20:09:16.580Z,6.78
2023-01-20T20:11:43.948Z,6.17
2023-01-20T20:14:16.661Z,6.38
2023-01-20T20:19:13.419Z,6.90
2023-01-20T20:21:40.359Z,7.38
2023-01-20T20:24:08.722Z,6.20
2023-01-20T20:26:36.523Z,6.80
2023-01-20T20:29:15.004Z,6.05
2023-01-20T20:31:41.987Z,6.82
2023-01-20T20:34:11.838Z,5.88
2023-01-20T20:36:39.750Z,6.07
2023-01-20T20:39:07.879Z,6.60
2023-01-20T20:41:37.381Z,6.68
2023-01-20T20:44:04.749Z,6.40
2023-01-20T20:46:32.329Z,6.57
2023-01-20T20:49:02.234Z,6.43
2023-01-20T20:51:31.970Z,7.07
2023-01-20T20:54:01.067Z,6.57
2023-01-20T20:56:31.542Z,7.50
2023-01-20T20:59:02.542Z,6.95
2023-01-20T21:01:33.002Z,7.00
2023-01-20T21:04:00.790Z,6.57
2023-01-20T21:06:28.744Z,6.70
2023-01-20T21:08:55.734Z,6.68
2023-01-20T21:11:24.132Z,7.38
2023-01-20T21:13:51.987Z,7.10
2023-01-20T21:16:23.850Z,7.13
2023-01-20T21:18:52.616Z,5.00
2023-01-20T21:21:20.616Z,6.22
2023-01-20T21:23:52.315Z,6.38
2023-01-20T21:26:20.232Z,5.87
2023-01-20T21:28:49.278Z,6.85
2023-01-20T21:31:22.502Z,27.25
2023-01-20T21:33:54.135Z,35.75
2023-01-20T21:36:21.739Z,27.38
2023-01-20T21:38:49.251Z,20.08
2023-01-20T21:41:16.965Z,14.10
2023-01-20T21:44:04.506Z,9.63
2023-01-20T21:46:38.233Z,7.20
2023-01-20T21:49:25.332Z,6.80
2023-01-20T21:52:10.644Z,6.70
2023-01-20T21:54:39.888Z,6.10
2023-01-20T21:57:07.090Z,7.88
2023-01-20T21:59:33.990Z,7.00
2023-01-20T22:02:00.901Z,6.63
2023-01-20T22:04:29.996Z,6.50
2023-01-20T22:06:56.839Z,6.55
2023-01-20T22:09:23.693Z,6.15
2023-01-20T22:11:51.125Z,5.30
2023-01-20T22:14:17.994Z,6.45
2023-01-20T22:16:44.955Z,8.80
2023-01-20T22:19:15.429Z,8.55
2023-01-20T22:21:42.666Z,6.55
2023-01-20T22:24:10.215Z,6.15
2023-01-20T22:26:37.347Z,6.43
2023-01-20T22:29:04.221Z,5.72
2023-01-20T22:31:32.124Z,6.78
2023-01-20T22:34:04.010Z,5.80
2023-01-20T22:36:31.158Z,4.10
2023-01-20T22:38:58.201Z,5.50
2023-01-20T22:41:25.293Z,5.75
2023-01-20T22:43:52.151Z,5.72
2023-01-20T22:46:21.249Z,7.28
2023-01-20T22:48:51.240Z,6.05
2023-01-20T22:51:20.639Z,6.85
2023-01-20T22:53:48.052Z,6.70
2023-01-20T22:56:17.852Z,5.70
2023-01-20T22:58:45.794Z,5.40
2023-01-20T23:01:25.363Z,6.32
2023-01-20T23:03:57.332Z,5.38
2023-01-20T23:06:25.211Z,6.10
2023-01-20T23:08:52.267Z,5.72
2023-01-20T23:11:21.786Z,5.72
2023-01-20T23:13:49.327Z,5.70
2023-01-20T23:16:18.901Z,6.28
2023-01-20T23:18:46.499Z,5.47
2023-01-20T23:21:14.016Z,6.00
2023-01-20T23:23:40.860Z,5.18
2023-01-20T23:26:10.849Z,5.45
2023-01-20T23:28:37.796Z,5.00
2023-01-20T23:31:07.487Z,5.40
2023-01-20T23:33:34.653Z,5.55
2023-01-20T23:36:15.677Z,6.13
2023-01-20T23:38:43.407Z,5.32
2023-01-20T23:41:10.844Z,6.30
2023-01-20T23:43:37.779Z,5.90
2023-01-20T23:46:06.330Z,6.72
2023-01-20T23:48:34.156Z,5.80
2023-01-20T23:51:02.045Z,5.57
2023-01-20T23:53:31.019Z,5.30
2023-01-20T23:56:12.297Z,5.75
2023-01-20T23:58:39.729Z,5.90
